< < Back
Terminal Aerodrome Forecast


Current Version              Previous Versions:   1  2  3  4  5  6  7  8  9  

Terminal Aerodrome Forecast

461
FTUS42 KFFC 270157 AAB
TAFAHN
TAF AMD
KAHN 270157Z 2702/2724 28005KT P6SM SCT025 BKN250
     FM270400 00000KT P6SM FEW250
     FM271300 31004KT P6SM FEW010
     FM271500 31004KT P6SM SCT250=

Latest METAR

143
SAUS70 KWBC 270600 RRA
MTRAHN
METAR KAHN 270551Z AUTO 31004KT 7SM OVC029 01/M01 A3016 RMK AO2 SLP220
T00111006 10039 20000 51014


USA.gov is the U.S. government's official web portal to all federal, state and local government web resources and services.